• Join FlightAware (Why Join?)
  • Login
  • US Flag 
04:44PM EDT


 

Airport Tracker/Info


-or-


 

Live Flight TrackerFlight Track Log ✈ N340K ✈ 15-Jul-2013 ✈ M50 - KBVS

Flight Track Log - Related Links

Times and Time Zones

All times are in EDT time to prevent confusion due to time zone crossing. See the N340K flight status page for this flight to view local times or setup timezone preferences in your user account.

Time Position Orientation Groundspeed Altitude Reporting Facility
EDT Latitude Longitude Course Direction KTS MPH feet Rate Location/Type
09:05AM 46.0600 -120.0897 329° Northwest 143 165 10,100  Level Seattle Center
09:06AM 46.0875 -120.1172 325° Northwest 142 163 10,900 960 Climbing Seattle Center
09:07AM 46.1286 -120.1536 328° Northwest 152 175 12,100 960 Climbing Seattle Center
09:08AM 46.1589 -120.1825 327° Northwest 152 175 12,900 900 Climbing Seattle Center
09:09AM 45.9941 -119.9940 325° Northwest  Level FlightAware Approximate
09:09AM 46.1931 -120.2147 327° Northwest 149 171 13,900  Level Seattle Center
09:10AM 46.2294 -120.2481 328° Northwest 154 177 14,800 900 Climbing Seattle Center
09:11AM 46.2669 -120.2803 329° Northwest 157 181 15,800 600 Climbing Seattle Center
09:12AM 46.3125 -120.3264 325° Northwest 174 200 16,100 120 Climbing Seattle Center
09:13AM 46.3603 -120.3675 329° Northwest 197 227 16,100  Level Seattle Center
09:14AM 46.4069 -120.4114 327° Northwest 200 230 16,100  Level Seattle Center
09:15AM 46.4531 -120.4536 328° Northwest 197 227 16,100  Level Seattle Center
09:16AM 46.5003 -120.4956 329° Northwest 195 224 16,100  Level Seattle Center
09:17AM 46.5378 -120.5342 325° Northwest 187 215 16,100  Level Seattle Center
09:18AM 46.5861 -120.5778 328° Northwest 189 217 16,100  Level Seattle Center
09:19AM 46.6322 -120.6194 328° Northwest 192 221 16,100  Level Seattle Center
09:20AM 46.6750 -120.6619 326° Northwest 187 215 16,100  Level Seattle Center
09:21AM 46.7203 -120.7014 329° Northwest 190 219 16,100  Level Seattle Center
09:22AM 46.7622 -120.7433 326° Northwest 185 213 16,100  Level Seattle Center
09:23AM 46.8067 -120.7844 328° Northwest 189 217 16,100  Level Seattle Center
09:24AM 46.8508 -120.8261 327° Northwest 190 219 16,100  Level Seattle Center
09:25AM 46.8947 -120.8672 327° Northwest 190 219 16,100  Level Seattle Center
09:26AM 46.9372 -120.9086 326° Northwest 184 212 16,100  Level Seattle Center
09:27AM 46.9811 -120.9492 328° Northwest 187 215 16,100  Level Seattle Center
09:28AM 47.0303 -120.9956 327° Northwest 187 215 16,100  Level Seattle Center
09:29AM 47.0739 -121.0392 326° Northwest 191 220 16,100  Level Seattle Center
09:30AM 47.1178 -121.0806 327° Northwest 189 217 16,100  Level Seattle Center
09:31AM 47.1625 -121.1228 327° Northwest 193 222 16,100  Level Seattle Center
09:32AM 47.2064 -121.1647 327° Northwest 192 221 16,100 -60 Level Seattle Center
09:33AM 47.2511 -121.2081 327° Northwest 195 224 16,000 -60 Descending Seattle Center
09:34AM 47.3011 -121.2597 325° Northwest 193 222 16,000  Level Seattle Center
09:35AM 47.3447 -121.3022 327° Northwest 189 217 16,000  Level Seattle Center
09:36AM 47.3897 -121.3419 329° Northwest 189 217 16,100  Climbing Seattle Center
09:37AM 47.4322 -121.3864 325° Northwest 188 216 16,000  Descending Seattle Center
09:38AM 47.4756 -121.4261 328° Northwest 186 214 16,100  Climbing Seattle Center
09:39AM 47.5181 -121.4694 325° Northwest 187 215 16,100 -60 Level Seattle Center
09:40AM 47.5603 -121.5108 327° Northwest 183 211 16,000 -60 Descending Seattle Center
09:41AM 47.6064 -121.5550 327° Northwest 183 211 16,000  Level Seattle Center
09:42AM 47.6489 -121.5969 326° Northwest 183 211 16,100  Climbing Seattle Center
09:43AM 47.6906 -121.6389 326° Northwest 182 209 16,000 -60 Descending Seattle Center
09:44AM 47.7336 -121.6800 327° Northwest 184 212 16,000 -120 Level Seattle Center
09:45AM 47.7761 -121.7214 327° Northwest 184 212 15,800 -600 Descending Seattle Center
09:46AM 47.8222 -121.7708 324° Northwest 197 227 14,900 -780 Descending Seattle Center
09:47AM 47.8683 -121.8133 328° Northwest 198 228 14,300 -720 Descending Seattle Center
09:48AM 47.9125 -121.8597 325° Northwest 197 227 13,500 -900 Descending Seattle Center
09:49AM 47.9583 -121.9064 326° Northwest 202 232 12,600 -840 Descending Seattle Center
09:50AM 48.0042 -121.9517 327° Northwest 203 234 11,800 -900 Descending Seattle Center
09:51AM 48.0561 -122.0081 324° Northwest 199 229 10,800 -900 Descending Seattle Center
09:52AM 48.0956 -122.0400 332° Northwest 200 230 10,000 -900 Descending Seattle Center
09:53AM 48.1400 -122.0850 326° Northwest 197 227 9,100 -1,140 Descending Seattle Center
09:54AM 48.1839 -122.1286 326° Northwest 193 222 7,800 -1,320 Descending Seattle Center
09:55AM 48.2328 -122.1892 320° Northwest 193 222 6,500 -1,320 Descending Seattle Center
09:56AM 48.2800 -122.2306 330° Northwest 198 228 5,200 -1,440 Descending Seattle Center
09:57AM 48.3253 -122.2719 329° Northwest 202 232 3,700 -1,500 Descending Seattle Center